Cedar Creek, Texas
Current Conditions -  °F | °C
As of 2:53 PM on Thursday 23 Oct 2014 (Local Time) from KAUS Reporting Station
Broken Clouds Broken Clouds  
Wind Chill: 80°   Ceiling: 10000
Heat Index: 81°   Visibility: 10mi
Dew Point: 59°   Wind: 0mph
Humidity: 48%   Direction: NA
Pressure: 30.08"   Gusts: NA
Location:  30.09°N, 97.5°W
Report Text: KAUS 231953Z 00000KT 10SM FEW048 BKN100 BKN150 27/15 A3008 RMK AO2 SLP176 T02670150
Loading
Personal Weather Stations






























Interactive Weather Map
Tropical Storm Tracking
New forecast layout! Learn more

10-Day Weather Forecast

Advertisements
Track Severe Weather on mobile